Time;durP1;ratioP1;P1;durP2;ratioP2;P2;SDS_P1;SDS_P2;PMS_P1;PMS_P2;Temp;Humidity;BMP_temperature;BMP_pressure;BME280_temperature;BME280_humidity;BME280_pressure;Samples;Min_cycle;Max_cycle;Signal;HPM_P1;HPM_P2
2022/03/02 00:00:15;;;;;;;13.17;8.00;;;;;;;3.50;49.92;101831.81;674564;29;1492;-77
2022/03/02 00:00:38;;;;;;;11.75;7.85;;;;;;;3.49;53.26;101871.38;673963;29;1381;-77
2022/03/02 00:00:59;;;;;;;11.82;7.43;;;;;;;3.49;54.81;101842.94;671245;29;1392;-77
2022/03/02 00:01:27;;;;;;;12.38;7.95;;;;;;;3.46;53.43;101837.66;667748;29;4381;-77
2022/03/02 00:01:49;;;;;;;11.70;7.95;;;;;;;3.47;53.43;101841.13;670039;29;3293;-77
2022/03/02 00:02:13;;;;;;;13.40;8.35;;;;;;;3.44;55.74;101851.31;670791;29;1541;-78
2022/03/02 00:02:34;;;;;;;12.73;8.05;;;;;;;3.47;54.69;101844.56;672591;29;1557;-76
2022/03/02 00:02:55;;;;;;;12.45;7.88;;;;;;;3.47;52.80;101869.56;673540;29;1566;-77
2022/03/02 00:03:18;;;;;;;13.27;8.00;;;;;;;3.44;52.30;101874.59;670656;29;1245;-77
2022/03/02 00:03:39;;;;;;;13.27;7.40;;;;;;;3.44;53.66;101874.59;671892;29;1301;-78
2022/03/02 00:04:08;;;;;;;12.50;7.90;;;;;;;3.46;52.96;101860.00;670343;29;2429;-77
2022/03/02 00:04:29;;;;;;;12.25;8.00;;;;;;;3.47;53.61;101874.72;669196;29;4326;-77
2022/03/02 00:04:49;;;;;;;13.13;7.87;;;;;;;3.44;53.40;101872.00;670423;29;1939;-77
2022/03/02 00:05:11;;;;;;;12.87;8.03;;;;;;;3.40;51.01;101845.13;668455;29;1400;-77
2022/03/02 00:05:31;;;;;;;12.70;8.50;;;;;;;3.36;50.22;101844.09;671891;29;2403;-77
2022/03/02 00:05:52;;;;;;;11.70;7.90;;;;;;;3.35;50.85;101856.97;670760;29;1567;-77
2022/03/02 00:06:12;;;;;;;11.75;7.70;;;;;;;3.37;51.62;101838.13;673421;29;1256;-77
2022/03/02 00:06:33;;;;;;;13.80;7.73;;;;;;;3.41;50.98;101846.91;675021;29;1310;-77
2022/03/02 00:06:53;;;;;;;12.65;7.82;;;;;;;3.41;52.29;101852.94;674402;29;1386;-77
2022/03/02 00:07:14;;;;;;;12.27;7.88;;;;;;;3.44;53.41;101835.81;669047;29;4300;-77
2022/03/02 00:07:34;;;;;;;14.13;8.03;;;;;;;3.41;52.74;101840.03;667957;29;1295;-77
2022/03/02 00:07:55;;;;;;;12.93;7.93;;;;;;;3.44;52.08;101841.00;673580;29;3726;-77
2022/03/02 00:08:16;;;;;;;13.27;7.70;;;;;;;3.41;50.81;101831.38;673452;29;1600;-78
2022/03/02 00:08:38;;;;;;;12.47;8.03;;;;;;;3.44;51.84;101830.66;673806;29;1197;-77
2022/03/02 00:08:59;;;;;;;12.15;8.32;;;;;;;3.46;51.40;101870.34;674268;29;1126;-77
2022/03/02 00:09:20;;;;;;;11.25;7.97;;;;;;;3.43;52.46;101839.22;674430;29;1183;-77
2022/03/02 00:09:41;;;;;;;12.32;8.10;;;;;;;3.40;56.21;101835.66;671155;29;1398;-77
2022/03/02 00:10:03;;;;;;;12.17;8.23;;;;;;;3.38;54.76;101834.72;673683;29;1686;-77
2022/03/02 00:10:24;;;;;;;10.95;7.65;;;;;;;3.37;55.24;101826.91;663078;29;4346;-77
2022/03/02 00:10:44;;;;;;;10.90;7.30;;;;;;;3.46;52.83;101860.00;676681;29;1603;-79
2022/03/02 00:11:05;;;;;;;13.03;7.93;;;;;;;3.46;52.71;101860.00;676635;29;1650;-77
2022/03/02 00:11:28;;;;;;;12.52;8.07;;;;;;;3.47;53.92;101825.59;676913;29;1252;-78
2022/03/02 00:11:49;;;;;;;10.87;7.80;;;;;;;3.45;53.70;101861.72;675543;29;1289;-77
2022/03/02 00:12:10;;;;;;;11.40;7.70;;;;;;;3.52;52.04;101868.94;676508;29;1582;-77
2022/03/02 00:12:30;;;;;;;11.30;7.57;;;;;;;3.55;52.38;101847.50;675805;29;1293;-77
2022/03/02 00:12:51;;;;;;;11.55;8.23;;;;;;;3.55;51.16;101840.63;675110;29;3590;-77
2022/03/02 00:13:12;;;;;;;12.10;8.10;;;;;;;3.60;50.91;101868.38;674345;29;3548;-77
2022/03/02 00:13:32;;;;;;;11.65;8.18;;;;;;;3.60;51.44;101847.69;668220;29;4833;-77
2022/03/02 00:13:58;;;;;;;12.63;8.20;;;;;;;3.54;53.53;101835.38;668301;29;1317;-77
2022/03/02 00:14:22;;;;;;;12.13;8.30;;;;;;;3.54;50.51;101871.56;671894;29;1380;-77
2022/03/02 00:14:48;;;;;;;11.95;8.10;;;;;;;3.58;50.54;101832.09;672913;29;1869;-79
2022/03/02 00:15:09;;;;;;;11.73;8.00;;;;;;;3.58;50.42;101868.31;675075;29;1424;-77
2022/03/02 00:15:30;;;;;;;11.65;8.00;;;;;;;3.51;53.29;101859.41;674902;29;1984;-77
2022/03/02 00:15:50;;;;;;;10.95;8.10;;;;;;;3.42;53.02;101830.59;673376;29;1536;-77
2022/03/02 00:16:12;;;;;;;11.57;8.00;;;;;;;3.41;51.75;101873.63;673843;29;3586;-77
2022/03/02 00:16:34;;;;;;;11.38;7.80;;;;;;;3.38;51.72;101837.31;672743;29;7503;-77
2022/03/02 00:16:55;;;;;;;13.15;8.20;;;;;;;3.35;51.98;101832.00;674113;29;1226;-77
2022/03/02 00:17:15;;;;;;;11.73;7.87;;;;;;;3.35;52.61;101844.94;671082;29;1399;-78
2022/03/02 00:17:36;;;;;;;11.05;7.45;;;;;;;3.36;53.92;101835.47;672627;29;1341;-77
2022/03/02 00:17:56;;;;;;;12.63;8.02;;;;;;;3.33;52.57;101861.19;671062;29;1537;-78
2022/03/02 00:18:17;;;;;;;12.23;8.00;;;;;;;3.30;52.50;101837.81;671395;29;2946;-77
2022/03/02 00:18:43;;;;;;;12.63;7.90;;;;;;;3.23;51.64;101834.06;672924;29;2871;-77
2022/03/02 00:19:05;;;;;;;12.00;7.95;;;;;;;3.20;52.97;101862.34;676497;29;1400;-77
2022/03/02 00:19:25;;;;;;;12.80;7.82;;;;;;;3.18;53.19;101831.25;675993;29;4359;-78
2022/03/02 00:19:46;;;;;;;11.50;7.75;;;;;;;3.17;52.13;101844.09;668394;29;1792;-78
2022/03/02 00:20:07;;;;;;;11.02;7.70;;;;;;;3.14;52.70;101842.25;673508;29;1248;-77
2022/03/02 00:20:28;;;;;;;10.68;7.78;;;;;;;3.18;54.77;101851.06;671263;29;1415;-76
2022/03/02 00:20:56;;;;;;;10.57;7.50;;;;;;;3.19;57.57;101834.75;672407;29;1946;-76
2022/03/02 00:21:18;;;;;;;11.57;8.15;;;;;;;3.16;56.84;101850.97;670274;29;3049;-78
2022/03/02 00:21:38;;;;;;;12.07;7.75;;;;;;;3.16;59.38;101840.66;676723;29;1631;-78
2022/03/02 00:21:59;;;;;;;13.02;7.93;;;;;;;3.13;53.41;101865.44;672983;29;1948;-78
2022/03/02 00:22:19;;;;;;;12.33;7.90;;;;;;;3.12;53.90;101877.50;674806;29;4443;-78
2022/03/02 00:22:40;;;;;;;11.38;7.90;;;;;;;3.13;55.68;101855.13;675443;29;1639;-78
2022/03/02 00:23:01;;;;;;;11.00;7.65;;;;;;;3.14;56.23;101851.72;674833;29;1580;-78
2022/03/02 00:23:24;;;;;;;13.30;8.10;;;;;;;3.14;57.91;101867.22;671702;29;1425;-78
2022/03/02 00:23:45;;;;;;;11.90;8.00;;;;;;;3.11;55.81;101836.97;674218;29;2725;-78
2022/03/02 00:24:08;;;;;;;11.85;8.07;;;;;;;3.09;55.12;101860.97;673844;29;2010;-78
2022/03/02 00:24:29;;;;;;;11.52;7.88;;;;;;;3.11;52.00;101877.44;671120;29;1665;-78
2022/03/02 00:24:51;;;;;;;12.63;7.82;;;;;;;3.03;51.53;101836.66;668035;29;3357;-78
2022/03/02 00:25:12;;;;;;;12.98;8.10;;;;;;;3.03;51.45;101853.81;671241;29;1393;-79
2022/03/02 00:25:33;;;;;;;11.65;7.53;;;;;;;3.06;54.83;101849.69;671027;29;4364;-78
2022/03/02 00:25:56;;;;;;;11.75;8.07;;;;;;;3.03;53.60;101838.31;674405;29;1268;-78
2022/03/02 00:26:17;;;;;;;11.40;7.47;;;;;;;3.02;52.81;101846.91;674195;29;1602;-78
2022/03/02 00:26:38;;;;;;;10.77;7.40;;;;;;;3.03;55.57;101884.81;675584;29;1720;-76
2022/03/02 00:26:59;;;;;;;10.50;7.70;;;;;;;3.06;56.27;101870.34;673799;29;3479;-76
2022/03/02 00:27:23;;;;;;;12.83;8.07;;;;;;;3.09;57.42;101863.53;676483;29;1402;-78
2022/03/02 00:27:46;;;;;;;13.13;8.18;;;;;;;3.04;56.07;101840.09;676493;29;1421;-78
2022/03/02 00:28:10;;;;;;;12.38;8.13;;;;;;;3.06;56.26;101854.84;675474;29;1506;-79
2022/03/02 00:28:31;;;;;;;11.95;7.80;;;;;;;3.03;54.32;101862.47;671329;29;4290;-78
2022/03/02 00:28:52;;;;;;;12.68;7.85;;;;;;;3.01;52.19;101855.47;676516;29;1655;-78
2022/03/02 00:29:12;;;;;;;12.40;8.35;;;;;;;2.96;52.02;101873.31;672046;29;1656;-76
2022/03/02 00:29:32;;;;;;;12.00;8.17;;;;;;;2.97;54.33;101859.59;674405;29;1927;-76
2022/03/02 00:29:53;;;;;;;13.07;8.15;;;;;;;2.96;58.54;101842.31;676045;29;3428;-76
2022/03/02 00:30:14;;;;;;;12.37;8.27;;;;;;;2.96;57.80;101842.31;676649;29;1854;-78
2022/03/02 00:30:35;;;;;;;12.18;8.20;;;;;;;2.94;54.84;101851.72;676698;29;1513;-78
2022/03/02 00:30:55;;;;;;;12.20;7.82;;;;;;;2.92;55.99;101871.41;678138;29;1662;-78
2022/03/02 00:31:16;;;;;;;11.45;7.70;;;;;;;2.98;56.80;101851.03;675987;29;4376;-78
2022/03/02 00:31:37;;;;;;;11.55;7.68;;;;;;;3.00;57.81;101854.56;675445;29;1275;-81
2022/03/02 00:31:58;;;;;;;10.95;7.78;;;;;;;3.08;57.59;101861.81;673846;29;1647;-76
2022/03/02 00:32:18;;;;;;;11.03;7.67;;;;;;;3.09;56.97;101879.97;676303;29;1771;-76
2022/03/02 00:32:40;;;;;;;12.23;7.80;;;;;;;3.06;57.42;101835.91;673284;29;3457;-76
2022/03/02 00:33:00;;;;;;;12.63;7.85;;;;;;;3.01;55.45;101840.84;673389;29;2142;-77
2022/03/02 00:33:24;;;;;;;11.27;7.87;;;;;;;2.96;54.88;101857.81;670919;29;1326;-75
2022/03/02 00:33:45;;;;;;;12.60;8.50;;;;;;;2.96;56.72;101856.94;671391;29;1294;-76
2022/03/02 00:34:16;;;;;;;12.55;8.20;;;;;;;2.93;59.09;101836.16;672129;29;1526;-76
2022/03/02 00:34:46;;;;;;;13.25;8.20;;;;;;;2.94;59.42;101843.97;673137;29;5118;-76
2022/03/02 00:35:09;;;;;;;12.18;8.10;;;;;;;2.88;53.15;101854.00;674734;29;1538;-76
2022/03/02 00:35:32;;;;;;;11.30;7.78;;;;;;;2.88;57.25;101859.16;673041;29;3744;-76
2022/03/02 00:35:55;;;;;;;11.10;7.45;;;;;;;2.89;57.78;101840.28;670396;29;1771;-76
2022/03/02 00:36:20;;;;;;;11.63;7.78;;;;;;;2.93;57.85;101860.28;671581;29;1701;-76
2022/03/02 00:36:40;;;;;;;13.00;8.00;;;;;;;2.94;57.66;101833.63;671656;29;1265;-77
2022/03/02 00:37:03;;;;;;;11.77;7.60;;;;;;;2.96;59.24;101855.25;671015;29;1257;-77
2022/03/02 00:37:24;;;;;;;11.25;7.65;;;;;;;2.92;57.83;101834.38;671049;29;4360;-76
2022/03/02 00:37:44;;;;;;;11.65;8.10;;;;;;;2.92;57.55;101837.84;670970;29;1314;-76
2022/03/02 00:38:10;;;;;;;12.10;7.90;;;;;;;2.91;57.65;101841.25;671805;29;1248;-76
2022/03/02 00:38:31;;;;;;;13.23;8.30;;;;;;;2.81;57.43;101837.38;667835;29;3672;-76
2022/03/02 00:38:54;;;;;;;12.20;8.00;;;;;;;2.80;59.37;101857.97;670063;29;1527;-76
2022/03/02 00:39:17;;;;;;;11.75;7.95;;;;;;;2.75;58.58;101867.19;671371;29;1072;-76
2022/03/02 00:39:38;;;;;;;12.70;8.00;;;;;;;2.79;59.10;101863.94;674920;29;1110;-78
2022/03/02 00:39:58;;;;;;;13.07;8.15;;;;;;;2.82;59.77;101849.44;678690;29;1091;-77
2022/03/02 00:40:19;;;;;;;12.40;8.32;;;;;;;2.78;61.45;101839.78;676961;28;4379;-76
2022/03/02 00:40:41;;;;;;;12.60;8.33;;;;;;;2.76;60.19;101837.97;674899;29;1592;-76
2022/03/02 00:41:01;;;;;;;11.23;7.97;;;;;;;2.80;61.92;101863.13;673411;29;2951;-76
2022/03/02 00:41:25;;;;;;;11.13;8.00;;;;;;;2.76;59.17;101840.56;673920;29;2010;-76
2022/03/02 00:41:45;;;;;;;12.10;8.30;;;;;;;2.73;58.89;101860.25;675017;29;4207;-76
2022/03/02 00:42:09;;;;;;;11.10;7.70;;;;;;;2.76;58.74;101854.34;676424;29;1387;-79
2022/03/02 00:42:35;;;;;;;11.45;7.95;;;;;;;2.75;58.22;101837.06;670772;29;4458;-76
2022/03/02 00:43:06;;;;;;;13.52;8.35;;;;;;;2.76;60.34;101850.88;670531;29;1368;-77
2022/03/02 00:43:26;;;;;;;11.10;7.97;;;;;;;2.74;57.95;101853.38;669069;29;4396;-76
2022/03/02 00:43:47;;;;;;;12.80;8.33;;;;;;;2.73;58.08;101843.88;671429;29;2169;-76
2022/03/02 00:44:08;;;;;;;12.70;8.05;;;;;;;2.76;58.48;101837.97;668443;29;1455;-76
2022/03/02 00:44:29;;;;;;;11.98;7.57;;;;;;;2.78;58.81;101867.31;671805;29;2094;-76
2022/03/02 00:44:50;;;;;;;11.60;7.90;;;;;;;2.82;58.62;101870.09;671517;29;1915;-77
2022/03/02 00:45:12;;;;;;;12.03;8.40;;;;;;;2.84;58.46;101842.66;671421;29;2091;-76
2022/03/02 00:45:32;;;;;;;12.82;8.40;;;;;;;2.81;59.10;101842.53;670564;29;1302;-76
2022/03/02 00:45:53;;;;;;;12.68;8.38;;;;;;;2.81;59.17;101870.03;671024;29;1553;-76
2022/03/02 00:46:14;;;;;;;11.77;8.17;;;;;;;2.84;58.09;101841.78;672745;29;4377;-76
2022/03/02 00:46:35;;;;;;;11.18;8.02;;;;;;;2.85;58.87;101853.88;671501;29;1310;-76
2022/03/02 00:47:05;;;;;;;12.00;7.97;;;;;;;2.75;57.59;101856.84;673958;29;3390;-76
2022/03/02 00:47:26;;;;;;;12.13;8.30;;;;;;;2.69;55.85;101845.41;673407;29;1585;-76
2022/03/02 00:47:47;;;;;;;11.63;8.20;;;;;;;2.66;56.96;101845.28;676438;29;1474;-76
2022/03/02 00:48:09;;;;;;;11.82;7.90;;;;;;;2.66;57.56;101849.53;673243;29;1317;-76
2022/03/02 00:48:30;;;;;;;11.02;7.75;;;;;;;2.65;58.48;101828.00;672702;29;1379;-76
2022/03/02 00:48:51;;;;;;;13.40;7.80;;;;;;;2.62;58.38;101845.97;673533;29;2466;-76
2022/03/02 00:49:11;;;;;;;11.27;7.88;;;;;;;2.58;56.98;101833.72;671340;29;1264;-76
2022/03/02 00:49:33;;;;;;;12.18;8.48;;;;;;;2.60;59.02;101834.66;672883;29;4275;-76
2022/03/02 00:49:57;;;;;;;11.88;8.57;;;;;;;2.60;57.12;101875.97;673825;29;2395;-76
2022/03/02 00:50:19;;;;;;;11.82;7.75;;;;;;;2.64;58.92;101858.94;672782;29;1408;-76
2022/03/02 00:50:43;;;;;;;11.75;7.95;;;;;;;2.62;56.36;101829.59;675764;29;1334;-76
2022/03/02 00:51:06;;;;;;;11.88;8.15;;;;;;;2.57;54.39;101855.16;678023;29;1391;-77
2022/03/02 00:51:28;;;;;;;12.10;8.18;;;;;;;2.59;57.95;101861.31;675033;29;1427;-76
2022/03/02 00:51:48;;;;;;;11.05;7.45;;;;;;;2.58;59.71;101854.38;671619;29;1787;-76
2022/03/02 00:52:11;;;;;;;12.07;7.67;;;;;;;2.63;58.82;101849.41;668028;29;1310;-76
2022/03/02 00:52:36;;;;;;;11.35;7.80;;;;;;;2.63;59.77;101836.50;667702;29;4360;-76
2022/03/02 00:53:00;;;;;;;12.18;8.05;;;;;;;2.57;55.35;101831.06;668462;29;974;-76
2022/03/02 00:53:24;;;;;;;11.73;8.00;;;;;;;2.50;55.05;101820.44;672632;29;1865;-79
2022/03/02 00:53:45;;;;;;;12.02;7.90;;;;;;;2.49;57.60;101851.34;671940;29;1369;-76
2022/03/02 00:54:05;;;;;;;12.70;7.97;;;;;;;2.48;60.11;101827.25;672544;29;1314;-76
2022/03/02 00:54:26;;;;;;;11.38;8.05;;;;;;;2.48;60.44;101823.75;673600;29;1334;-76
2022/03/02 00:54:46;;;;;;;11.02;8.02;;;;;;;2.48;57.72;101823.75;671396;29;1421;-76
2022/03/02 00:55:08;;;;;;;11.40;8.07;;;;;;;2.44;56.54;101853.72;668680;29;3174;-76
2022/03/02 00:55:28;;;;;;;11.35;7.80;;;;;;;2.48;57.44;101821.16;668360;29;4414;-76
2022/03/02 00:55:49;;;;;;;12.30;8.20;;;;;;;2.50;59.44;101828.19;674080;29;2186;-76
2022/03/02 00:56:10;;;;;;;13.50;8.63;;;;;;;2.49;59.68;101853.94;673919;29;1748;-76
2022/03/02 00:56:30;;;;;;;11.40;7.82;;;;;;;2.46;58.61;101828.84;674519;29;1525;-76
2022/03/02 00:56:51;;;;;;;12.00;8.03;;;;;;;2.42;56.32;101836.38;675025;29;1222;-76
2022/03/02 00:57:17;;;;;;;12.73;8.18;;;;;;;2.36;56.02;101832.69;673430;29;1724;-77
2022/03/02 00:57:38;;;;;;;13.20;8.43;;;;;;;2.37;57.59;101842.22;672123;29;1504;-77
2022/03/02 00:57:59;;;;;;;13.07;7.85;;;;;;;2.44;58.39;101834.75;675416;29;3561;-76
2022/03/02 00:58:20;;;;;;;12.10;7.85;;;;;;;2.47;58.51;101825.47;674716;29;4353;-76
2022/03/02 00:58:40;;;;;;;12.87;8.27;;;;;;;2.46;60.17;101821.09;674706;29;1567;-76
2022/03/02 00:59:01;;;;;;;12.57;8.27;;;;;;;2.45;60.33;101821.94;677117;29;1431;-76
2022/03/02 00:59:24;;;;;;;11.80;8.00;;;;;;;2.45;60.65;101827.09;673736;29;1170;-76
2022/03/02 00:59:48;;;;;;;12.27;7.90;;;;;;;2.37;58.50;101819.00;676262;29;1323;-76
2022/03/02 01:00:11;;;;;;;13.32;8.70;;;;;;;2.33;58.35;101824.81;675531;29;1622;-76
2022/03/02 01:00:33;;;;;;;11.57;8.10;;;;;;;2.36;59.01;101835.28;675065;29;1399;-76
2022/03/02 01:00:53;;;;;;;11.57;7.82;;;;;;;2.42;60.64;101821.78;671141;29;3613;-76
2022/03/02 01:01:14;;;;;;;12.00;8.07;;;;;;;2.42;61.27;101815.75;672289;29;4424;-76
2022/03/02 01:01:35;;;;;;;13.18;8.40;;;;;;;2.39;59.06;101839.69;673747;29;2220;-76
2022/03/02 01:01:58;;;;;;;11.68;8.38;;;;;;;2.42;60.02;101826.06;674785;29;1210;-78
2022/03/02 01:02:19;;;;;;;12.57;8.18;;;;;;;2.44;60.73;101825.31;674451;29;1609;-78
2022/03/02 01:02:39;;;;;;;13.43;7.97;;;;;;;2.40;58.24;101819.97;674717;29;1470;-75
2022/03/02 01:03:00;;;;;;;12.85;7.65;;;;;;;2.34;59.82;101825.69;674327;29;1214;-77
2022/03/02 01:03:20;;;;;;;11.63;7.73;;;;;;;2.30;61.53;101816.94;673428;29;1430;-76
2022/03/02 01:03:41;;;;;;;11.48;8.07;;;;;;;2.27;59.23;101846.84;671935;29;2952;-76
2022/03/02 01:04:11;;;;;;;11.43;8.00;;;;;;;2.30;60.41;101816.03;668944;29;3971;-76
2022/03/02 01:04:31;;;;;;;11.88;8.00;;;;;;;2.35;60.40;101836.13;662309;29;4285;-76
2022/03/02 01:04:52;;;;;;;11.40;8.20;;;;;;;2.33;64.06;101824.81;673550;29;1911;-76
2022/03/02 01:05:13;;;;;;;12.10;8.23;;;;;;;2.32;62.42;101835.94;671902;29;1732;-76
2022/03/02 01:05:34;;;;;;;12.13;7.85;;;;;;;2.37;61.75;101834.47;669339;29;1319;-78
2022/03/02 01:05:54;;;;;;;13.75;8.13;;;;;;;2.41;64.00;101855.25;669465;29;1628;-78
2022/03/02 01:06:17;;;;;;;12.37;8.50;;;;;;;2.34;64.06;101826.59;668680;29;1663;-76
2022/03/02 01:06:38;;;;;;;11.35;8.10;;;;;;;2.41;63.14;101832.03;672058;29;3163;-76
2022/03/02 01:06:59;;;;;;;13.47;8.13;;;;;;;2.38;60.97;101813.03;676636;29;3692;-76
2022/03/02 01:07:20;;;;;;;13.13;8.13;;;;;;;2.32;60.68;101835.06;675897;29;4422;-77
2022/03/02 01:07:40;;;;;;;11.07;7.78;;;;;;;2.28;60.50;101828.00;678162;29;1245;-76
2022/03/02 01:08:01;;;;;;;11.68;7.68;;;;;;;2.28;62.21;101823.69;672629;29;1605;-78
2022/03/02 01:08:22;;;;;;;11.75;7.90;;;;;;;2.26;60.94;101809.84;671176;29;1728;-76
2022/03/02 01:08:42;;;;;;;11.13;7.63;;;;;;;2.29;62.32;101816.88;674280;29;1774;-76
2022/03/02 01:09:06;;;;;;;11.35;7.70;;;;;;;2.31;63.53;101816.13;676390;29;1135;-76
2022/03/02 01:09:36;;;;;;;11.75;8.15;;;;;;;2.27;63.71;101829.69;675929;29;1980;-76
2022/03/02 01:09:57;;;;;;;11.73;7.47;;;;;;;2.45;62.64;101833.94;675313;29;1389;-77
2022/03/02 01:10:19;;;;;;;11.20;7.50;;;;;;;2.52;62.51;101810.19;672973;29;4355;-76
2022/03/02 01:10:39;;;;;;;12.75;8.05;;;;;;;2.53;63.07;101822.28;672242;29;1642;-76
2022/03/02 01:11:03;;;;;;;13.03;8.30;;;;;;;2.54;62.36;101803.41;671335;29;1471;-76
2022/03/02 01:11:23;;;;;;;11.52;8.15;;;;;;;2.51;61.94;101808.44;673126;29;1378;-76
2022/03/02 01:11:44;;;;;;;11.40;7.93;;;;;;;2.42;62.54;101816.63;672258;29;1610;-76
2022/03/02 01:12:07;;;;;;;11.40;7.80;;;;;;;2.34;60.77;101833.44;674984;29;1658;-76
2022/03/02 01:12:27;;;;;;;11.52;7.72;;;;;;;2.31;61.62;101821.28;673179;29;3379;-76
2022/03/02 01:12:48;;;;;;;12.15;8.15;;;;;;;2.42;62.30;101805.41;672003;29;1561;-76
2022/03/02 01:13:08;;;;;;;12.13;7.90;;;;;;;2.48;62.18;101810.84;674201;29;1996;-76
2022/03/02 01:13:29;;;;;;;12.03;7.80;;;;;;;2.50;62.57;101815.28;661908;29;4327;-77
2022/03/02 01:14:00;;;;;;;11.55;7.78;;;;;;;2.51;61.33;101829.09;675744;29;1432;-77
2022/03/02 01:14:22;;;;;;;11.27;7.80;;;;;;;2.54;61.17;101808.56;675327;29;1466;-78
2022/03/02 01:14:42;;;;;;;11.48;7.60;;;;;;;2.55;61.34;101838.75;676427;29;1465;-77
2022/03/02 01:15:04;;;;;;;11.10;7.40;;;;;;;2.48;58.47;101808.25;674154;29;1688;-77
2022/03/02 01:15:25;;;;;;;12.05;8.15;;;;;;;2.42;61.53;101805.41;670949;29;3442;-77
2022/03/02 01:15:46;;;;;;;11.83;8.03;;;;;;;2.37;61.83;101806.09;668465;29;1857;-77
2022/03/02 01:16:07;;;;;;;11.88;7.85;;;;;;;2.44;61.43;101835.66;671854;29;1859;-78
2022/03/02 01:16:30;;;;;;;11.10;7.90;;;;;;;2.50;61.85;101804.06;677463;28;4292;-77
2022/03/02 01:16:58;;;;;;;12.48;7.70;;;;;;;2.43;63.24;101814.94;672933;29;1472;-77
2022/03/02 01:17:20;;;;;;;12.50;8.15;;;;;;;2.39;62.70;101806.16;670311;29;1481;-77
2022/03/02 01:17:42;;;;;;;12.05;7.90;;;;;;;2.34;62.11;101830.84;674787;29;1387;-77
2022/03/02 01:18:05;;;;;;;11.77;8.27;;;;;;;2.32;64.15;101825.63;671033;29;4014;-77
2022/03/02 01:18:29;;;;;;;12.00;8.00;;;;;;;2.33;63.86;101816.19;673383;29;1796;-77
2022/03/02 01:18:49;;;;;;;11.75;8.10;;;;;;;2.26;64.81;101809.84;674386;29;1220;-77
2022/03/02 01:19:12;;;;;;;11.23;7.90;;;;;;;2.21;62.04;101801.00;671789;29;1281;-78
2022/03/02 01:19:33;;;;;;;11.60;7.40;;;;;;;2.17;65.04;101801.66;670959;29;4716;-76
2022/03/02 01:19:53;;;;;;;12.45;7.80;;;;;;;2.14;64.34;101801.53;669491;29;1530;-77
2022/03/02 01:20:14;;;;;;;12.47;7.77;;;;;;;2.13;64.38;101800.66;671244;29;2441;-77
2022/03/02 01:20:37;;;;;;;12.90;7.82;;;;;;;2.09;65.75;101793.59;673469;29;1524;-77
2022/03/02 01:20:59;;;;;;;11.98;7.90;;;;;;;2.12;65.48;101801.47;673924;29;1652;-77
2022/03/02 01:21:20;;;;;;;12.65;8.32;;;;;;;2.07;63.51;101802.94;672229;29;4087;-77
2022/03/02 01:21:40;;;;;;;11.50;7.63;;;;;;;2.13;64.40;101805.81;673364;29;1523;-77
2022/03/02 01:22:01;;;;;;;12.88;7.93;;;;;;;2.14;63.81;101798.94;674414;29;1546;-77
2022/03/02 01:22:24;;;;;;;12.17;7.90;;;;;;;2.11;62.26;101816.88;673554;29;4334;-77
2022/03/02 01:22:49;;;;;;;11.93;7.90;;;;;;;2.06;62.90;101808.88;671728;29;1704;-76
2022/03/02 01:23:09;;;;;;;12.60;8.18;;;;;;;1.99;63.67;101783.63;668848;29;1452;-77
2022/03/02 01:23:30;;;;;;;11.67;8.10;;;;;;;1.96;61.40;101797.25;673090;29;4129;-77
2022/03/02 01:23:56;;;;;;;12.27;7.60;;;;;;;1.96;61.67;101786.06;671683;29;3782;-77
2022/03/02 01:24:17;;;;;;;12.05;7.95;;;;;;;1.98;63.00;101785.31;679003;28;1617;-77
2022/03/02 01:24:37;;;;;;;10.77;7.75;;;;;;;1.91;63.12;101780.69;677607;29;1927;-77
2022/03/02 01:25:02;;;;;;;11.75;7.90;;;;;;;1.93;66.12;101807.41;677732;29;1017;-77
2022/03/02 01:25:22;;;;;;;12.23;8.07;;;;;;;1.90;67.13;101791.81;676228;28;4336;-77
2022/03/02 01:25:43;;;;;;;12.85;8.07;;;;;;;1.82;64.26;101796.56;677230;29;1160;-77
2022/03/02 01:26:08;;;;;;;12.45;8.43;;;;;;;1.80;65.07;101797.28;676383;29;1125;-77
2022/03/02 01:26:29;;;;;;;12.55;8.50;;;;;;;1.75;61.68;101793.63;677987;29;1866;-77
2022/03/02 01:26:53;;;;;;;11.10;7.68;;;;;;;1.69;59.94;101800.25;676879;29;1892;-77
2022/03/02 01:27:16;;;;;;;11.20;7.70;;;;;;;1.67;59.81;101788.09;673630;29;3442;-77
2022/03/02 01:27:37;;;;;;;12.30;7.95;;;;;;;1.63;59.09;101802.50;674246;29;1369;-77
2022/03/02 01:27:58;;;;;;;14.13;8.43;;;;;;;1.63;58.73;101776.72;676709;29;1459;-78
2022/03/02 01:28:21;;;;;;;11.90;7.75;;;;;;;1.66;62.58;101774.31;673349;29;4458;-77
2022/03/02 01:28:41;;;;;;;12.43;8.25;;;;;;;1.70;63.73;101790.81;676624;29;1765;-77
2022/03/02 01:29:03;;;;;;;12.00;7.87;;;;;;;1.80;64.56;101798.19;678451;29;1446;-77
2022/03/02 01:29:24;;;;;;;11.43;8.05;;;;;;;1.81;65.83;101784.47;678624;28;2977;-77
2022/03/02 01:29:44;;;;;;;12.50;8.40;;;;;;;1.78;66.63;101810.13;670640;29;1610;-77
2022/03/02 01:30:08;;;;;;;12.30;7.80;;;;;;;1.73;63.16;101769.44;673130;29;3389;-78
2022/03/02 01:30:32;;;;;;;12.02;8.07;;;;;;;1.68;60.41;101813.94;668494;29;1737;-77
2022/03/02 01:30:55;;;;;;;11.50;7.82;;;;;;;1.70;63.43;101788.22;671967;29;1437;-77
2022/03/02 01:31:16;;;;;;;11.30;8.00;;;;;;;1.65;61.36;101813.78;677293;29;4355;-77
2022/03/02 01:31:37;;;;;;;11.55;7.63;;;;;;;1.61;60.63;101780.94;673167;29;1989;-77
2022/03/02 01:32:01;;;;;;;11.07;7.70;;;;;;;1.65;61.47;101769.09;674555;29;3337;-77
2022/03/02 01:32:22;;;;;;;10.85;7.60;;;;;;;1.64;64.56;101775.06;671325;29;4228;-77
2022/03/02 01:32:42;;;;;;;11.95;7.70;;;;;;;1.66;62.75;101800.09;669204;29;1405;-77
2022/03/02 01:33:06;;;;;;;12.00;8.10;;;;;;;1.70;63.91;101799.44;673321;29;1710;-78
2022/03/02 01:33:29;;;;;;;11.70;7.88;;;;;;;1.70;64.81;101783.06;672089;29;1360;-77
2022/03/02 01:33:51;;;;;;;11.50;7.60;;;;;;;1.69;64.70;101763.28;672991;29;1492;-77
2022/03/02 01:34:13;;;;;;;11.55;7.80;;;;;;;1.71;64.59;101771.97;674270;29;1709;-77
2022/03/02 01:34:37;;;;;;;12.63;8.00;;;;;;;1.70;62.72;101768.50;673579;29;4825;-77
2022/03/02 01:34:58;;;;;;;11.00;8.13;;;;;;;1.73;63.60;101810.69;670368;29;3392;-77
2022/03/02 01:35:19;;;;;;;11.17;8.03;;;;;;;1.80;63.34;101789.56;670602;29;3548;-78
2022/03/02 01:35:40;;;;;;;12.18;7.75;;;;;;;1.79;60.73;101780.97;669411;29;1103;-77
2022/03/02 01:36:00;;;;;;;11.55;7.45;;;;;;;1.77;59.22;101792.00;671909;29;1413;-77
2022/03/02 01:36:22;;;;;;;11.87;7.50;;;;;;;1.75;63.32;101799.66;669382;29;1404;-77
2022/03/02 01:36:46;;;;;;;11.35;7.63;;;;;;;1.74;64.53;101777.25;670274;29;1163;-77
2022/03/02 01:37:10;;;;;;;11.23;7.53;;;;;;;1.78;63.90;101788.63;672653;29;1444;-77
2022/03/02 01:37:31;;;;;;;12.07;7.97;;;;;;;1.81;62.28;101768.13;674414;29;4320;-77
2022/03/02 01:37:52;;;;;;;12.07;7.73;;;;;;;1.75;60.68;101780.75;673822;29;4237;-78
2022/03/02 01:38:12;;;;;;;11.38;7.10;;;;;;;1.79;62.02;101764.63;671061;29;3867;-77
2022/03/02 01:38:33;;;;;;;11.23;7.32;;;;;;;1.76;60.59;101785.97;672733;29;1846;-77
2022/03/02 01:38:59;;;;;;;11.32;7.25;;;;;;;1.73;61.69;101795.22;674492;29;1455;-77
2022/03/02 01:39:19;;;;;;;12.00;7.28;;;;;;;1.68;58.18;101793.31;675819;29;1477;-77
2022/03/02 01:39:40;;;;;;;11.23;7.55;;;;;;;1.68;59.95;101788.16;671634;29;1697;-77
2022/03/02 01:40:01;;;;;;;11.48;7.78;;;;;;;1.67;63.01;101764.88;670342;29;1836;-77
2022/03/02 01:40:21;;;;;;;11.85;7.85;;;;;;;1.72;63.52;101758.28;668935;29;4326;-77
2022/03/02 01:40:42;;;;;;;10.63;7.33;;;;;;;1.83;64.34;101763.94;667458;29;3166;-76
2022/03/02 01:41:04;;;;;;;11.00;7.40;;;;;;;1.90;63.61;101770.25;669489;29;3638;-77
2022/03/02 01:41:26;;;;;;;12.68;7.63;;;;;;;1.94;63.45;101756.72;671385;29;1134;-77
2022/03/02 01:41:50;;;;;;;13.48;7.65;;;;;;;1.90;63.75;101760.84;674978;29;1642;-77
2022/03/02 01:42:10;;;;;;;11.43;7.57;;;;;;;1.93;63.95;101773.00;674874;29;1831;-78
2022/03/02 01:42:31;;;;;;;11.63;7.68;;;;;;;1.91;62.00;101793.56;674360;29;4201;-77
2022/03/02 01:42:52;;;;;;;11.77;7.63;;;;;;;1.85;62.25;101780.38;673731;29;1436;-77
2022/03/02 01:43:18;;;;;;;11.02;7.53;;;;;;;1.84;63.48;101768.28;673278;29;4420;-77
2022/03/02 01:43:39;;;;;;;12.10;7.90;;;;;;;1.85;62.30;101785.53;673975;29;2245;-77
2022/03/02 01:44:07;;;;;;;11.47;7.57;;;;;;;1.81;62.00;101761.28;674772;29;1270;-77
2022/03/02 01:44:32;;;;;;;12.02;7.70;;;;;;;1.86;63.57;101788.19;675656;29;1156;-77